ADDS METAR Data INFO
IDs: Format: Raw Decoded Include TAF

Data at: 1505 UTC 21 Feb 2018

KBGM 201453Z 20005KT 10SM CLR 11/08 A3021 RMK AO2 SLP238 T01060083 51005
KBGM 211353Z AUTO 20006KT 10SM CLR 14/11 A3019 RMK AO2 SLP222 T01390106
KBGM 211253Z AUTO 21006KT 10SM CLR 13/11 A3020 RMK AO2 SLP225 T01330106
KBGM 201453Z 20005KT 10SM CLR 11/08 A3021 RMK AO2 SLP238 T01060083 51005
KBGM 201353Z 20007KT 10SM CLR 08/07 A3020 RMK AO2 SLP237 T00830072
KBGM 201253Z 20008KT 10SM CLR 07/06 A3020 RMK AO2 SLP239 T00670056
KBGM 201153Z 20006KT 10SM BKN090 06/06 A3020 RMK AO2 SLP236 70028 T00610056 10061 20050 51009
KBGM 201053Z 19006KT 10SM CLR 06/05 A3019 RMK AO2 SLP234 T00560050
KBGM 200953Z AUTO 20007KT 8SM SCT120 06/05 A3018 RMK AO2 SLP232 T00560050
KBGM 200853Z AUTO 20005KT 8SM CLR 06/05 A3017 RMK AO2 SLP228 T00560050 56004
KBGM 200753Z AUTO 18006KT 4SM BR FEW003 05/05 A3017 RMK AO2 SLP230 T00500050
KBGM 200751Z AUTO 18006KT 4SM BR SCT003 05/05 A3017 RMK AO2
KBGM 200653Z AUTO 18006KT 4SM BR BKN003 05/04 A3018 RMK AO2 SLP233 T00500044
KBGM 200553Z AUTO 18006KT 5SM BR OVC003 05/04 A3018 RMK AO2 SLP234 60009 T00500044 10050 20033 51001
KBGM 200453Z 17006KT 5SM BR BKN003 OVC008 05/04 A3018 RMK AO2 CIG 002V006 SLP231 T00500044 400501039
KBGM 200442Z 18006KT 5SM BR BKN004 OVC008 05/04 A3018 RMK AO2 CIG 002V006 T00500044
KBGM 200353Z 19005KT 8SM BKN005 OVC060 05/05 A3018 RMK AO2 RAE24 SLP233 P0001 T00500050